createdAt,value
2018-07-03T00:01:14.874Z,62.70
2018-07-03T00:03:43.397Z,62.90
2018-07-03T00:06:11.896Z,63.10
2018-07-03T00:08:40.408Z,63.10
2018-07-03T00:11:08.944Z,63.10
2018-07-03T00:13:37.445Z,63.30
2018-07-03T00:16:08.121Z,63.20
2018-07-03T00:18:36.956Z,63.20
2018-07-03T00:21:05.499Z,63.30
2018-07-03T00:23:34.366Z,63.50
2018-07-03T00:26:03.556Z,63.70
2018-07-03T00:28:32.377Z,63.70
2018-07-03T00:31:01.643Z,63.80
2018-07-03T00:33:30.402Z,63.90
2018-07-03T00:35:59.286Z,64.00
2018-07-03T00:38:29.085Z,63.80
2018-07-03T00:40:57.578Z,64.00
2018-07-03T00:43:40.752Z,64.10
2018-07-03T00:46:10.886Z,64.10
2018-07-03T00:48:43.042Z,64.40
2018-07-03T00:51:18.042Z,64.50
2018-07-03T00:53:58.062Z,64.70
2018-07-03T00:56:34.034Z,64.80
2018-07-03T00:59:09.724Z,65.10
2018-07-03T01:01:38.390Z,65.00
2018-07-03T01:04:07.969Z,65.30
2018-07-03T01:06:37.437Z,65.30
2018-07-03T01:09:08.022Z,65.20
2018-07-03T01:11:38.008Z,65.60
2018-07-03T01:14:06.934Z,65.80
2018-07-03T01:16:35.445Z,65.90
2018-07-03T01:19:04.599Z,66.10
2018-07-03T01:21:34.393Z,66.30
2018-07-03T01:24:03.729Z,66.20
2018-07-03T01:26:32.583Z,66.60
2018-07-03T01:29:01.994Z,66.80
2018-07-03T01:31:30.843Z,66.90
2018-07-03T01:34:00.013Z,67.00
2018-07-03T01:36:28.839Z,67.30
2018-07-03T01:38:57.682Z,67.50
2018-07-03T01:41:32.669Z,67.60
2018-07-03T01:46:54.649Z,67.80
2018-07-03T01:49:23.829Z,68.30
2018-07-03T01:51:56.721Z,68.60
2018-07-03T03:08:15.492Z,69.00
2018-07-03T03:10:45.548Z,71.40
2018-07-03T03:13:14.092Z,72.60
2018-07-03T03:15:45.136Z,72.50
2018-07-03T03:18:13.674Z,72.50
2018-07-03T03:20:43.452Z,73.40
2018-07-03T03:23:12.313Z,73.70
2018-07-03T03:25:40.853Z,73.70
2018-07-03T03:28:10.589Z,74.20
2018-07-03T03:30:43.209Z,73.90
2018-07-03T03:33:15.479Z,74.30
2018-07-03T05:34:48.453Z,74.60
2018-07-03T05:37:17.365Z,72.20
2018-07-03T05:39:46.446Z,72.00
2018-07-03T05:42:15.337Z,72.00
2018-07-03T05:44:44.473Z,71.70
2018-07-03T05:47:12.997Z,71.20
2018-07-03T05:49:41.805Z,71.10
2018-07-03T05:52:10.958Z,71.10
2018-07-03T05:54:40.101Z,71.10
2018-07-03T05:57:08.587Z,70.80
2018-07-03T05:59:37.422Z,70.90
2018-07-03T06:02:06.716Z,70.40
2018-07-03T06:04:35.950Z,69.90
2018-07-03T06:07:04.565Z,69.80
2018-07-03T06:09:33.065Z,69.60
2018-07-03T06:12:02.101Z,69.40
2018-07-03T06:14:30.650Z,69.10
2018-07-03T06:16:59.300Z,68.60
2018-07-03T06:19:28.756Z,67.90
2018-07-03T06:21:57.544Z,67.90
2018-07-03T06:24:26.362Z,67.70
2018-07-03T06:26:55.412Z,67.50
2018-07-03T06:29:23.931Z,67.30
2018-07-03T06:31:53.093Z,66.90
2018-07-03T06:34:23.440Z,66.50
2018-07-03T06:39:20.537Z,66.10
2018-07-03T06:41:49.052Z,65.90
2018-07-03T06:44:19.659Z,64.90
2018-07-03T06:46:48.163Z,63.80
2018-07-03T06:49:16.969Z,63.20
2018-07-03T06:51:45.487Z,62.40
2018-07-03T06:54:14.506Z,62.00
2018-07-03T06:56:43.351Z,62.20
2018-07-03T06:59:12.893Z,61.40
2018-07-03T07:01:42.573Z,61.40
2018-07-03T07:04:11.077Z,61.60
2018-07-03T07:06:40.217Z,61.00
2018-07-03T07:09:09.607Z,61.40
2018-07-03T07:11:38.391Z,60.60
2018-07-03T07:14:07.405Z,60.40
2018-07-03T07:16:36.245Z,60.30
2018-07-03T07:19:05.073Z,60.10
2018-07-03T07:21:33.898Z,60.30
2018-07-03T07:24:02.372Z,59.80
2018-07-03T07:26:31.909Z,59.10
2018-07-03T07:29:00.730Z,57.90
2018-07-03T07:31:29.216Z,58.20
2018-07-03T07:33:58.037Z,58.60
2018-07-03T07:36:27.240Z,58.10
2018-07-03T07:38:55.717Z,58.10
2018-07-03T07:41:24.525Z,57.60
2018-07-03T07:43:53.763Z,57.80
2018-07-03T07:46:22.248Z,57.00
2018-07-03T07:48:50.760Z,56.50
2018-07-03T07:51:19.590Z,56.90
2018-07-03T07:53:48.421Z,56.60
2018-07-03T07:56:17.242Z,55.40
2018-07-03T07:58:45.729Z,54.20
2018-07-03T08:01:14.507Z,54.80
2018-07-03T08:03:43.771Z,54.40
2018-07-03T08:06:13.407Z,54.30
2018-07-03T08:08:41.859Z,53.50
2018-07-03T08:11:13.265Z,53.60
2018-07-03T08:13:42.091Z,51.80
2018-07-03T08:16:11.642Z,52.40
2018-07-03T08:18:40.213Z,52.30
2018-07-03T08:21:10.152Z,51.80
2018-07-03T08:23:41.269Z,51.50
2018-07-03T08:26:09.785Z,50.80
2018-07-03T08:28:38.592Z,50.80
2018-07-03T08:31:07.433Z,50.10
2018-07-03T08:33:36.757Z,50.20
2018-07-03T08:36:05.430Z,49.50
2018-07-03T08:38:34.599Z,48.30
2018-07-03T08:41:03.125Z,47.70
2018-07-03T08:43:31.608Z,48.20
2018-07-03T08:46:00.454Z,47.20
2018-07-03T08:48:29.370Z,46.50
2018-07-03T08:50:58.689Z,46.60
2018-07-03T08:53:27.540Z,47.00
2018-07-03T08:55:56.353Z,46.20
2018-07-03T08:58:26.407Z,46.10
2018-07-03T09:00:54.720Z,45.40
2018-07-03T09:03:24.146Z,44.60
2018-07-03T09:05:53.130Z,44.40
2018-07-03T09:08:21.942Z,43.60
2018-07-03T09:10:50.476Z,43.80
2018-07-03T09:13:19.018Z,44.30
2018-07-03T09:18:15.544Z,43.10
2018-07-03T09:20:43.897Z,42.10
2018-07-03T10:09:54.085Z,40.90
2018-07-03T10:12:22.641Z,40.00
2018-07-03T10:14:51.909Z,39.00
2018-07-03T10:17:20.484Z,39.00
2018-07-03T10:19:48.697Z,39.50
2018-07-03T10:22:17.457Z,39.50
2018-07-03T10:24:46.334Z,38.90
2018-07-03T10:27:14.939Z,38.00
2018-07-03T10:29:43.828Z,37.20
2018-07-03T10:33:37.124Z,37.70
2018-07-03T10:36:05.814Z,38.00
2018-07-03T10:38:34.401Z,38.00
2018-07-03T10:41:02.629Z,38.00
2018-07-03T10:43:31.059Z,37.20
2018-07-03T10:45:59.280Z,37.60
2018-07-03T10:48:29.661Z,37.50
2018-07-03T10:50:58.277Z,36.90
2018-07-03T10:53:26.520Z,37.10
2018-07-03T10:55:55.103Z,37.30
2018-07-03T10:58:23.665Z,36.80
2018-07-03T11:00:52.473Z,36.80
2018-07-03T11:03:21.136Z,36.70
2018-07-03T11:05:49.381Z,36.10
2018-07-03T11:08:18.260Z,36.30
2018-07-03T11:10:46.482Z,36.50
2018-07-03T11:13:15.051Z,35.80
2018-07-03T11:15:43.314Z,35.30
2018-07-03T11:18:11.604Z,35.10
2018-07-03T11:20:39.849Z,35.50
2018-07-03T11:23:08.128Z,34.60
2018-07-03T11:25:37.236Z,34.40
2018-07-03T11:28:05.843Z,34.70
2018-07-03T11:30:34.605Z,35.20
2018-07-03T11:33:02.839Z,34.80
2018-07-03T11:35:31.419Z,34.80
2018-07-03T11:37:59.972Z,34.10
2018-07-03T11:40:28.862Z,34.20
2018-07-03T11:42:57.759Z,33.60
2018-07-03T11:45:25.966Z,33.80
2018-07-03T11:47:54.583Z,34.30
2018-07-03T11:50:22.933Z,34.30
2018-07-03T11:52:51.194Z,33.00
2018-07-03T11:55:20.093Z,33.30
2018-07-03T11:57:48.334Z,33.50
2018-07-03T12:00:17.108Z,33.50
2018-07-03T12:02:45.670Z,34.40
2018-07-03T12:05:14.217Z,34.40
2018-07-03T12:07:42.480Z,34.60
2018-07-03T12:10:11.071Z,33.10
2018-07-03T12:12:39.955Z,32.60
2018-07-03T12:15:08.209Z,32.60
2018-07-03T12:17:37.444Z,32.70
2018-07-03T12:20:05.829Z,32.40
2018-07-03T12:22:34.674Z,33.00
2018-07-03T12:25:03.231Z,32.20
2018-07-03T12:27:32.137Z,32.70
2018-07-03T12:30:00.364Z,32.20
2018-07-03T12:32:28.925Z,32.50
2018-07-03T12:34:58.372Z,32.20
2018-07-03T12:37:26.622Z,32.60
2018-07-03T12:39:55.185Z,32.30
2018-07-03T12:42:23.736Z,32.60
2018-07-03T12:44:51.948Z,32.50
2018-07-03T12:47:20.500Z,32.20
2018-07-03T12:49:48.728Z,32.00
2018-07-03T12:52:32.315Z,31.90
2018-07-03T12:55:00.540Z,32.00
2018-07-03T12:57:29.443Z,31.70
2018-07-03T12:59:57.653Z,31.80
2018-07-03T13:02:26.551Z,32.50
2018-07-03T13:04:55.295Z,31.60
2018-07-03T13:07:23.885Z,31.90
2018-07-03T13:09:52.125Z,32.20
2018-07-03T13:12:20.697Z,31.00
2018-07-03T13:14:49.282Z,30.20
2018-07-03T13:17:17.851Z,30.20
2018-07-03T13:19:46.461Z,30.40
2018-07-03T13:22:14.745Z,30.10
2018-07-03T13:24:43.534Z,29.60
2018-07-03T13:27:12.402Z,29.60
2018-07-03T13:29:41.394Z,29.60
2018-07-03T13:32:10.371Z,29.70
2018-07-03T13:34:39.243Z,30.00
2018-07-03T13:39:36.720Z,30.20
2018-07-03T13:42:05.020Z,30.50
2018-07-03T13:44:42.441Z,30.20
2018-07-03T13:47:11.454Z,30.10
2018-07-03T13:49:39.845Z,30.30
2018-07-03T13:52:08.089Z,29.70
2018-07-03T13:54:36.341Z,29.50
2018-07-03T13:57:11.928Z,29.20
2018-07-03T13:59:40.517Z,29.10
2018-07-03T14:02:10.098Z,29.50
2018-07-03T14:04:39.354Z,29.50
2018-07-03T14:07:07.641Z,29.70
2018-07-03T14:09:36.241Z,29.80
2018-07-03T14:12:07.345Z,29.70
2018-07-03T14:14:35.594Z,30.00
2018-07-03T14:17:04.273Z,29.50
2018-07-03T14:19:35.873Z,29.60
2018-07-03T14:22:04.854Z,29.30
2018-07-03T14:24:33.785Z,29.30
2018-07-03T14:27:02.387Z,29.60
2018-07-03T14:29:30.957Z,29.40
2018-07-03T14:31:59.213Z,29.30
2018-07-03T14:34:27.484Z,29.30
2018-07-03T14:36:55.849Z,29.30
2018-07-03T14:39:24.396Z,29.40
2018-07-03T14:41:52.949Z,29.50
2018-07-03T14:44:21.280Z,29.70
2018-07-03T14:46:49.902Z,29.70
2018-07-03T14:49:18.269Z,29.80
2018-07-03T14:51:46.852Z,29.90
2018-07-03T14:54:15.849Z,29.80
2018-07-03T14:56:44.726Z,30.00
2018-07-03T14:59:13.325Z,30.30
2018-07-03T15:01:41.932Z,30.50
2018-07-03T15:04:10.208Z,30.30
2018-07-03T15:06:38.722Z,30.30
2018-07-03T15:09:08.808Z,30.30
2018-07-03T15:11:37.220Z,30.50
2018-07-03T15:14:05.713Z,30.80
2018-07-03T15:16:34.062Z,30.00
2018-07-03T15:19:07.696Z,29.90
2018-07-03T15:21:35.953Z,30.40
2018-07-03T15:24:06.646Z,30.50
2018-07-03T15:26:35.432Z,30.10
2018-07-03T15:29:03.781Z,30.40
2018-07-03T15:31:32.659Z,30.90
2018-07-03T15:34:01.342Z,31.10
2018-07-03T15:36:30.339Z,31.60
2018-07-03T15:38:59.915Z,32.00
2018-07-03T15:44:08.012Z,31.60
2018-07-03T15:46:36.603Z,31.60
2018-07-03T15:49:04.862Z,31.50
2018-07-03T15:51:33.514Z,32.00
2018-07-03T15:54:02.629Z,31.80
2018-07-03T15:56:30.918Z,31.30
2018-07-03T15:58:59.552Z,31.70
2018-07-03T16:04:12.182Z,31.30
2018-07-03T16:06:51.855Z,31.80
2018-07-03T16:09:32.171Z,31.60
2018-07-03T16:12:03.468Z,31.50
2018-07-03T16:14:32.206Z,31.40
2018-07-03T16:17:00.593Z,31.40
2018-07-03T16:19:34.967Z,31.80
2018-07-03T16:22:09.537Z,32.30
2018-07-03T16:24:38.157Z,32.60
2018-07-03T16:27:06.911Z,32.70
2018-07-03T16:29:36.150Z,33.10
2018-07-03T16:32:04.910Z,33.20
2018-07-03T16:37:03.552Z,32.90
2018-07-03T16:42:25.712Z,32.50
2018-07-03T16:44:54.575Z,32.50
2018-07-03T16:47:23.532Z,32.70
2018-07-03T16:49:52.441Z,33.00
2018-07-03T16:52:21.018Z,33.30
2018-07-03T16:54:49.261Z,33.50
2018-07-03T16:57:17.494Z,33.80
2018-07-03T16:59:46.123Z,33.80
2018-07-03T17:02:14.554Z,33.90
2018-07-03T17:04:43.543Z,34.30
2018-07-03T17:07:11.898Z,34.50
2018-07-03T17:09:40.174Z,34.40
2018-07-03T17:12:08.750Z,34.60
2018-07-03T17:14:37.340Z,34.30
2018-07-03T17:17:05.997Z,34.50
2018-07-03T17:19:36.109Z,34.30
2018-07-03T17:22:05.012Z,34.20
2018-07-03T17:24:34.723Z,34.90
2018-07-03T17:27:03.182Z,35.30
2018-07-03T17:29:37.437Z,35.40
2018-07-03T17:32:07.398Z,35.00
2018-07-03T17:34:36.294Z,35.30
2018-07-03T17:37:04.858Z,35.30
2018-07-03T17:39:44.535Z,35.70
2018-07-03T17:42:24.911Z,35.80
2018-07-03T17:45:59.724Z,35.80
2018-07-03T17:48:28.330Z,35.90
2018-07-03T17:50:57.014Z,35.50
2018-07-03T17:53:26.956Z,35.90
2018-07-03T17:55:55.537Z,35.90
2018-07-03T17:58:24.462Z,36.10
2018-07-03T18:03:21.067Z,36.50
2018-07-03T18:05:49.960Z,36.60
2018-07-03T18:08:18.524Z,36.30
2018-07-03T18:10:46.756Z,36.70
2018-07-03T18:13:15.317Z,36.80
2018-07-03T18:15:43.883Z,36.60
2018-07-03T18:18:12.473Z,36.80
2018-07-03T18:20:40.701Z,36.90
2018-07-03T18:23:09.427Z,36.90
2018-07-03T18:25:37.706Z,36.70
2018-07-03T18:28:06.760Z,37.00
2018-07-03T18:30:35.613Z,37.30
2018-07-03T18:33:03.923Z,37.30
2018-07-03T18:35:32.277Z,37.50
2018-07-03T18:38:00.484Z,37.60
2018-07-03T18:40:28.684Z,37.80
2018-07-03T18:42:56.893Z,38.00
2018-07-03T18:45:25.124Z,38.10
2018-07-03T18:47:53.361Z,38.20
2018-07-03T18:50:22.030Z,38.30
2018-07-03T18:52:50.256Z,38.50
2018-07-03T18:55:18.491Z,38.80
2018-07-03T18:57:47.074Z,38.90
2018-07-03T19:00:15.313Z,38.90
2018-07-03T19:02:44.038Z,39.00
2018-07-03T19:05:12.289Z,39.20
2018-07-03T19:07:40.526Z,39.40
2018-07-03T19:10:08.804Z,39.40
2018-07-03T19:12:37.614Z,39.60
2018-07-03T19:15:07.436Z,39.70
2018-07-03T19:17:42.839Z,39.90
2018-07-03T19:20:12.433Z,40.10
2018-07-03T19:22:42.227Z,40.30
2018-07-03T19:25:11.530Z,40.40
2018-07-03T19:27:40.740Z,41.20
2018-07-03T19:30:10.028Z,40.70
2018-07-03T19:32:39.533Z,41.20
2018-07-03T19:35:08.924Z,41.30
2018-07-03T19:37:37.521Z,41.30
2018-07-03T19:40:09.705Z,41.70
2018-07-03T19:42:50.362Z,41.90
2018-07-03T19:45:23.473Z,42.20
2018-07-03T19:47:52.398Z,42.50
2018-07-03T19:50:23.490Z,42.80
2018-07-03T19:52:54.889Z,42.90
2018-07-03T19:55:23.500Z,43.30
2018-07-03T19:58:03.177Z,44.10
2018-07-03T20:00:33.133Z,44.40
2018-07-03T20:03:02.899Z,44.40
2018-07-03T20:05:32.302Z,44.50
2018-07-03T20:08:01.322Z,44.80
2018-07-03T20:10:30.628Z,45.10
2018-07-03T20:13:00.151Z,45.10
2018-07-03T20:15:29.185Z,45.40
2018-07-03T20:17:57.949Z,45.60
2018-07-03T20:20:27.560Z,45.70
2018-07-03T20:22:56.074Z,45.90
2018-07-03T20:25:24.817Z,46.20
2018-07-03T20:27:53.410Z,46.40
2018-07-03T20:30:21.726Z,46.50
2018-07-03T20:32:49.978Z,46.60
2018-07-03T20:35:20.553Z,46.90
2018-07-03T20:38:01.256Z,47.10
2018-07-03T20:41:02.068Z,47.20
2018-07-03T20:43:32.939Z,47.70
2018-07-03T20:46:03.732Z,48.10
2018-07-03T20:48:32.013Z,48.20
2018-07-03T20:51:01.444Z,48.70
2018-07-03T20:53:29.925Z,49.30
2018-07-03T20:55:58.189Z,49.50
2018-07-03T20:58:26.709Z,49.90
2018-07-03T21:00:55.558Z,50.10
2018-07-03T21:03:25.122Z,50.20
2018-07-03T21:05:53.449Z,50.70
2018-07-03T21:08:22.522Z,51.10
2018-07-03T21:10:51.354Z,51.10
2018-07-03T21:13:19.871Z,51.60
2018-07-03T21:15:48.381Z,51.80
2018-07-03T21:18:17.841Z,52.00
2018-07-03T21:20:51.250Z,51.80
2018-07-03T21:23:19.760Z,52.60
2018-07-03T21:25:48.361Z,52.60
2018-07-03T21:28:17.582Z,52.60
2018-07-03T21:30:46.741Z,53.00
2018-07-03T21:33:15.734Z,53.80
2018-07-03T21:35:45.024Z,54.00
2018-07-03T21:38:13.801Z,54.40
2018-07-03T21:40:42.585Z,54.50
2018-07-03T21:43:11.109Z,54.60
2018-07-03T21:45:40.372Z,54.50
2018-07-03T21:48:23.886Z,54.70
2018-07-03T21:50:52.727Z,54.70
2018-07-03T21:53:21.425Z,55.10
2018-07-03T21:55:50.569Z,55.10
2018-07-03T21:58:19.074Z,55.30
2018-07-03T22:00:47.944Z,55.50
2018-07-03T22:03:16.446Z,55.60
2018-07-03T22:05:45.010Z,55.40
2018-07-03T22:08:13.527Z,55.60
2018-07-03T22:10:43.049Z,55.70
2018-07-03T22:13:11.578Z,56.20
2018-07-03T22:15:40.095Z,55.80
2018-07-03T22:18:08.602Z,55.80
2018-07-03T22:20:38.072Z,56.40
2018-07-03T22:23:06.830Z,56.30
2018-07-03T22:25:35.342Z,57.10
2018-07-03T22:28:03.858Z,56.70
2018-07-03T22:30:32.386Z,56.80
2018-07-03T22:33:00.911Z,56.70
2018-07-03T22:35:29.464Z,57.00
2018-07-03T22:37:58.300Z,57.20
2018-07-03T22:40:26.837Z,56.80
2018-07-03T22:42:56.170Z,56.50
2018-07-03T22:45:24.728Z,56.50
2018-07-03T22:47:53.623Z,56.50
2018-07-03T22:52:59.192Z,56.30
2018-07-03T22:55:27.867Z,56.30
2018-07-03T22:57:56.406Z,56.20
2018-07-03T23:00:25.939Z,56.30
2018-07-03T23:02:59.745Z,56.30
2018-07-03T23:05:38.729Z,56.60
2018-07-03T23:08:11.582Z,56.40
2018-07-03T23:10:41.339Z,56.60
2018-07-03T23:13:10.313Z,56.80
2018-07-03T23:15:40.360Z,56.70
2018-07-03T23:18:08.841Z,56.90
2018-07-03T23:20:37.317Z,56.90
2018-07-03T23:23:06.226Z,57.00
2018-07-03T23:25:34.755Z,57.10
2018-07-03T23:28:03.330Z,57.20
2018-07-03T23:30:31.826Z,57.40
2018-07-03T23:33:00.339Z,57.60
2018-07-03T23:35:29.193Z,58.40
2018-07-03T23:37:57.677Z,58.00
2018-07-03T23:40:26.177Z,58.20
2018-07-03T23:42:54.677Z,58.90
2018-07-03T23:45:26.191Z,58.60
2018-07-03T23:48:06.208Z,58.80
2018-07-03T23:50:47.282Z,58.90
2018-07-03T23:53:27.209Z,59.20
2018-07-03T23:56:08.469Z,59.30
2018-07-03T23:58:48.657Z,59.40
